首页
METAR-TAF:

METAR-TAF

机场 :

哥伦比亚, 南卡罗来纳州, 美国

纬度: 33-56-31N, 经度: 081-07-05W, 海拔: 71米

当前天气观测

该预报发布于57分钟前的23:56 UTC
风速10节,风向
温度 23°C
湿度 69%
气压 1018 hPa
能見度: 16.1公里
少量云层高于3000英尺
阴天层高于10000英尺

METAR: KCAE 262356Z 08010KT 10SM FEW030 OVC100 23/17 A3005 RMK AO2 SLP172 T02330167 10256 20233 53001

时间: 20:53 (00:53 UTC)

预报

该预报发布于1小时和28分钟前的23:25 UTC
预报有效从27日的 00点(UTC)到 27日的 24点(UTC)
风速7节,风向东转东北
能見度: 10公里
多云层高于2500英尺
多云层高于10000英尺
从 27日的 0300点(UTC)
风速5节,风向东转东北
能見度: 10公里
多云层高于1500英尺
阴天层高于8000英尺
从 27日的 0800点(UTC)
风速5节,风向东北
能見度: 8.0公里
阴天层高于700英尺
小雨
从 27日的 1400点(UTC)
风速10节,风向东北
能見度: 4.8公里
散云层高于800英尺
阴天层高于1500英尺
从 27日的 1800点(UTC)
风速5节,风向多变
能見度: 10公里
多云层高于2500英尺
附近有阵雨

TAF: KCAE 262325Z 2700/2724 07007KT P6SM BKN025 BKN100 FM270300 06005KT P6SM BKN015 OVC080 FM270800 05005KT 5SM -RA OVC007 FM271400 04010KT 3SM RA SCT008 OVC015 FM271800 VRB05KT P6SM VCSH BKN025

超过4000个机场的气象观测和天气预报(METAR&TAF报告)。

可查询的气象台以黄色和红色小点在地图上表示。

将鼠标移到小点上方,可查看气象台名称。

然后点击查看天气观测和预报。

如需切换地图:点击带黑十字的绿色按钮放大地图;点击带横线的绿色按钮缩小地图;或者点击绿色箭头查看邻近地区的地图。


METAR-TAF: